sensor_id;sensor_type;location;lat;lon;timestamp;pressure;altitude;pressure_sealevel;temperature;humidity
42691;BME280;28306;55.744;37.578;2022-07-25T00:02:23;99049.38;;;26.79;37.12
42691;BME280;28306;55.744;37.578;2022-07-25T00:04:48;99044.41;;;26.82;37.14
42691;BME280;28306;55.744;37.578;2022-07-25T00:07:14;99055.34;;;26.82;37.14
42691;BME280;28306;55.744;37.578;2022-07-25T00:09:40;99047.72;;;26.78;37.18
42691;BME280;28306;55.744;37.578;2022-07-25T00:12:06;99050.75;;;26.77;37.30
42691;BME280;28306;55.744;37.578;2022-07-25T00:14:31;99043.22;;;26.69;37.25
42691;BME280;28306;55.744;37.578;2022-07-25T00:16:57;99040.44;;;26.74;37.42
42691;BME280;28306;55.744;37.578;2022-07-25T00:19:23;99040.13;;;26.75;37.44
42691;BME280;28306;55.744;37.578;2022-07-25T00:21:48;99039.03;;;26.76;37.23
42691;BME280;28306;55.744;37.578;2022-07-25T00:24:14;99039.34;;;26.75;37.42
42691;BME280;28306;55.744;37.578;2022-07-25T00:26:40;99037.47;;;26.70;37.01
42691;BME280;28306;55.744;37.578;2022-07-25T00:29:05;99041.25;;;26.74;37.34
42691;BME280;28306;55.744;37.578;2022-07-25T00:31:31;99040.44;;;26.74;37.28
42691;BME280;28306;55.744;37.578;2022-07-25T00:33:57;99034.97;;;26.74;37.33
42691;BME280;28306;55.744;37.578;2022-07-25T00:36:22;99033.13;;;26.69;37.33
42691;BME280;28306;55.744;37.578;2022-07-25T00:38:48;99034.47;;;26.72;37.45
42691;BME280;28306;55.744;37.578;2022-07-25T00:41:14;99026.84;;;26.69;37.40
42691;BME280;28306;55.744;37.578;2022-07-25T00:43:43;99024.16;;;26.64;37.67
42691;BME280;28306;55.744;37.578;2022-07-25T00:46:13;99030.38;;;26.69;37.61
42691;BME280;28306;55.744;37.578;2022-07-25T00:48:39;99023.91;;;26.65;37.50
42691;BME280;28306;55.744;37.578;2022-07-25T00:51:06;99020.63;;;26.63;37.64
42691;BME280;28306;55.744;37.578;2022-07-25T00:53:32;99008.16;;;26.57;37.54
42691;BME280;28306;55.744;37.578;2022-07-25T00:55:57;98983.25;;;26.39;37.69
42691;BME280;28306;55.744;37.578;2022-07-25T00:58:23;99029.63;;;26.64;37.60
42691;BME280;28306;55.744;37.578;2022-07-25T01:00:49;99017.66;;;26.59;37.43
42691;BME280;28306;55.744;37.578;2022-07-25T01:03:15;99028.28;;;26.61;37.66
42691;BME280;28306;55.744;37.578;2022-07-25T01:05:41;99028.56;;;26.59;37.61
42691;BME280;28306;55.744;37.578;2022-07-25T01:08:07;99027.78;;;26.59;37.76
42691;BME280;28306;55.744;37.578;2022-07-25T01:10:33;99014.78;;;26.51;37.65
42691;BME280;28306;55.744;37.578;2022-07-25T01:12:59;99028.34;;;26.56;37.77
42691;BME280;28306;55.744;37.578;2022-07-25T01:15:25;99014.78;;;26.51;37.79
42691;BME280;28306;55.744;37.578;2022-07-25T01:17:51;99032.19;;;26.55;37.81
42691;BME280;28306;55.744;37.578;2022-07-25T01:20:22;99028.13;;;26.52;37.92
42691;BME280;28306;55.744;37.578;2022-07-25T01:22:48;99032.47;;;26.53;37.75
42691;BME280;28306;55.744;37.578;2022-07-25T01:25:14;99026.50;;;26.51;37.76
42691;BME280;28306;55.744;37.578;2022-07-25T01:27:41;99034.97;;;26.50;37.97
42691;BME280;28306;55.744;37.578;2022-07-25T01:30:09;99032.53;;;26.48;37.86
42691;BME280;28306;55.744;37.578;2022-07-25T01:32:36;99029.28;;;26.46;37.81
42691;BME280;28306;55.744;37.578;2022-07-25T01:35:03;99037.47;;;26.46;38.00
42691;BME280;28306;55.744;37.578;2022-07-25T01:37:30;99047.25;;;26.47;38.03
42691;BME280;28306;55.744;37.578;2022-07-25T01:39:55;99022.03;;;26.36;38.04
42691;BME280;28306;55.744;37.578;2022-07-25T01:42:21;99041.31;;;26.45;38.02
42691;BME280;28306;55.744;37.578;2022-07-25T01:44:47;99047.56;;;26.46;37.80
42691;BME280;28306;55.744;37.578;2022-07-25T01:47:13;99047.03;;;26.43;38.06
42691;BME280;28306;55.744;37.578;2022-07-25T01:49:39;99052.50;;;26.43;38.11
42691;BME280;28306;55.744;37.578;2022-07-25T01:52:05;99050.88;;;26.42;38.08
42691;BME280;28306;55.744;37.578;2022-07-25T01:54:31;99036.56;;;26.32;38.13
42691;BME280;28306;55.744;37.578;2022-07-25T01:56:57;99048.44;;;26.41;38.11
42691;BME280;28306;55.744;37.578;2022-07-25T01:59:22;99043.81;;;26.41;38.15
42691;BME280;28306;55.744;37.578;2022-07-25T02:01:48;99040.03;;;26.37;38.20
42691;BME280;28306;55.744;37.578;2022-07-25T02:04:14;99041.88;;;26.42;38.09
42691;BME280;28306;55.744;37.578;2022-07-25T02:06:39;99044.59;;;26.42;38.15
42691;BME280;28306;55.744;37.578;2022-07-25T02:09:06;99041.06;;;26.41;38.16
42691;BME280;28306;55.744;37.578;2022-07-25T02:11:33;99032.41;;;26.34;38.21
42691;BME280;28306;55.744;37.578;2022-07-25T02:13:59;99041.06;;;26.41;38.02
42691;BME280;28306;55.744;37.578;2022-07-25T02:16:24;99035.38;;;26.38;38.41
42691;BME280;28306;55.744;37.578;2022-07-25T02:18:50;99041.06;;;26.41;38.10
42691;BME280;28306;55.744;37.578;2022-07-25T02:21:16;99031.78;;;26.42;38.22
42691;BME280;28306;55.744;37.578;2022-07-25T02:23:51;99040.50;;;26.44;38.17
42691;BME280;28306;55.744;37.578;2022-07-25T02:26:16;99040.78;;;26.43;38.05
42691;BME280;28306;55.744;37.578;2022-07-25T02:28:42;99038.09;;;26.38;38.30
42691;BME280;28306;55.744;37.578;2022-07-25T02:31:08;99047.03;;;26.43;38.28
42691;BME280;28306;55.744;37.578;2022-07-25T02:33:35;99048.69;;;26.44;38.07
42691;BME280;28306;55.744;37.578;2022-07-25T02:36:00;99049.47;;;26.45;38.10
42691;BME280;28306;55.744;37.578;2022-07-25T02:38:26;99041.31;;;26.45;38.16
42691;BME280;28306;55.744;37.578;2022-07-25T02:40:52;99050.00;;;26.47;38.09
42691;BME280;28306;55.744;37.578;2022-07-25T02:43:18;99042.94;;;26.46;38.10
42691;BME280;28306;55.744;37.578;2022-07-25T02:45:45;99042.66;;;26.48;38.25
42691;BME280;28306;55.744;37.578;2022-07-25T02:48:11;99044.84;;;26.46;37.95
42691;BME280;28306;55.744;37.578;2022-07-25T02:50:37;99046.47;;;26.47;38.16
42691;BME280;28306;55.744;37.578;2022-07-25T02:53:02;99029.34;;;26.41;37.96
42691;BME280;28306;55.744;37.578;2022-07-25T02:55:29;99035.56;;;26.47;38.08
42691;BME280;28306;55.744;37.578;2022-07-25T02:57:55;99039.63;;;26.49;38.05
42691;BME280;28306;55.744;37.578;2022-07-25T03:00:20;99035.56;;;26.47;37.99
42691;BME280;28306;55.744;37.578;2022-07-25T03:02:46;99041.22;;;26.50;38.04
42691;BME280;28306;55.744;37.578;2022-07-25T03:05:13;99037.41;;;26.51;38.05
42691;BME280;28306;55.744;37.578;2022-07-25T03:07:40;99039.03;;;26.52;37.88
42691;BME280;28306;55.744;37.578;2022-07-25T03:10:07;99026.78;;;26.50;38.07
42691;BME280;28306;55.744;37.578;2022-07-25T03:12:34;99026.00;;;26.49;37.88
42691;BME280;28306;55.744;37.578;2022-07-25T03:15:00;99036.03;;;26.54;37.99
42691;BME280;28306;55.744;37.578;2022-07-25T03:17:26;99038.75;;;26.54;37.97
42691;BME280;28306;55.744;37.578;2022-07-25T03:19:53;99042.00;;;26.56;38.02
42691;BME280;28306;55.744;37.578;2022-07-25T03:22:20;99022.69;;;26.52;37.84
42691;BME280;28306;55.744;37.578;2022-07-25T03:24:46;99033.53;;;26.57;37.90
42691;BME280;28306;55.744;37.578;2022-07-25T03:27:11;99027.25;;;26.57;37.82
42691;BME280;28306;55.744;37.578;2022-07-25T03:29:38;99031.09;;;26.56;38.09
42691;BME280;28306;55.744;37.578;2022-07-25T03:32:04;99034.31;;;26.58;37.98
42691;BME280;28306;55.744;37.578;2022-07-25T03:34:29;99027.78;;;26.59;37.85
42691;BME280;28306;55.744;37.578;2022-07-25T03:36:55;99015.81;;;26.55;38.09
42691;BME280;28306;55.744;37.578;2022-07-25T03:39:21;99018.19;;;26.61;37.99
42691;BME280;28306;55.744;37.578;2022-07-25T03:41:46;99024.16;;;26.64;37.96
42691;BME280;28306;55.744;37.578;2022-07-25T03:44:12;99020.34;;;26.65;37.98
42691;BME280;28306;55.744;37.578;2022-07-25T03:46:38;99011.41;;;26.59;37.94
42691;BME280;28306;55.744;37.578;2022-07-25T03:49:04;99027.16;;;26.67;37.98
42691;BME280;28306;55.744;37.578;2022-07-25T03:51:29;99019.81;;;26.62;37.81
42691;BME280;28306;55.744;37.578;2022-07-25T03:53:55;99035.03;;;26.69;38.15
42691;BME280;28306;55.744;37.578;2022-07-25T03:56:44;99026.34;;;26.67;38.07
42691;BME280;28306;55.744;37.578;2022-07-25T03:59:13;99032.81;;;26.71;37.95
42691;BME280;28306;55.744;37.578;2022-07-25T04:01:39;99038.00;;;26.72;38.10
42691;BME280;28306;55.744;37.578;2022-07-25T04:04:05;99032.25;;;26.74;37.96
42691;BME280;28306;55.744;37.578;2022-07-25T04:06:32;99031.16;;;26.75;37.96
42691;BME280;28306;55.744;37.578;2022-07-25T04:08:57;99028.13;;;26.76;37.89
42691;BME280;28306;55.744;37.578;2022-07-25T04:11:23;99035.22;;;26.77;37.95
42691;BME280;28306;55.744;37.578;2022-07-25T04:13:50;99027.06;;;26.72;37.83
42691;BME280;28306;55.744;37.578;2022-07-25T04:16:16;99035.72;;;26.79;37.99
42691;BME280;28306;55.744;37.578;2022-07-25T04:18:42;99029.16;;;26.81;37.82
42691;BME280;28306;55.744;37.578;2022-07-25T04:21:08;99034.09;;;26.78;37.92
42691;BME280;28306;55.744;37.578;2022-07-25T04:23:35;99038.97;;;26.82;37.93
42691;BME280;28306;55.744;37.578;2022-07-25T04:26:00;99032.41;;;26.83;37.95
42691;BME280;28306;55.744;37.578;2022-07-25T04:28:27;99032.41;;;26.83;37.95
42691;BME280;28306;55.744;37.578;2022-07-25T04:30:53;99031.31;;;26.84;37.91
42691;BME280;28306;55.744;37.578;2022-07-25T04:33:20;99032.13;;;26.84;38.07
42691;BME280;28306;55.744;37.578;2022-07-25T04:35:46;99021.72;;;26.86;37.93
42691;BME280;28306;55.744;37.578;2022-07-25T04:38:12;99010.56;;;26.83;37.76
42691;BME280;28306;55.744;37.578;2022-07-25T04:40:38;99017.88;;;26.87;37.76
42691;BME280;28306;55.744;37.578;2022-07-25T04:43:04;99020.31;;;26.89;37.80
42691;BME280;28306;55.744;37.578;2022-07-25T04:45:31;99012.63;;;26.91;37.90
42691;BME280;28306;55.744;37.578;2022-07-25T04:47:57;99013.47;;;26.91;37.78
42691;BME280;28306;55.744;37.578;2022-07-25T04:50:23;99007.25;;;26.86;37.89
42691;BME280;28306;55.744;37.578;2022-07-25T04:52:49;99020.25;;;26.94;37.82
42691;BME280;28306;55.744;37.578;2022-07-25T04:55:14;99025.41;;;26.95;37.92
42691;BME280;28306;55.744;37.578;2022-07-25T04:57:40;99017.22;;;26.95;37.99
42691;BME280;28306;55.744;37.578;2022-07-25T05:00:08;99021.28;;;26.98;37.94
42691;BME280;28306;55.744;37.578;2022-07-25T05:02:34;99021.78;;;27.00;37.70
42691;BME280;28306;55.744;37.578;2022-07-25T05:05:01;99022.91;;;26.99;37.84
42691;BME280;28306;55.744;37.578;2022-07-25T05:07:26;99020.69;;;27.01;37.79
42691;BME280;28306;55.744;37.578;2022-07-25T05:09:53;99004.69;;;26.94;37.65
42691;BME280;28306;55.744;37.578;2022-07-25T05:12:18;99018.47;;;27.03;37.72
42691;BME280;28306;55.744;37.578;2022-07-25T05:14:44;99024.44;;;27.05;37.73
42691;BME280;28306;55.744;37.578;2022-07-25T05:17:10;99021.41;;;27.07;37.85
42691;BME280;28306;55.744;37.578;2022-07-25T05:19:36;99023.84;;;27.08;37.89
42691;BME280;28306;55.744;37.578;2022-07-25T05:22:02;99023.56;;;27.10;37.61
42691;BME280;28306;55.744;37.578;2022-07-25T05:24:28;99018.94;;;27.10;37.65
42691;BME280;28306;55.744;37.578;2022-07-25T05:26:53;99007.47;;;27.08;37.62
42691;BME280;28306;55.744;37.578;2022-07-25T05:29:19;99007.47;;;27.08;37.57
42691;BME280;28306;55.744;37.578;2022-07-25T05:31:45;99020.47;;;27.17;37.66
42691;BME280;28306;55.744;37.578;2022-07-25T05:34:10;99023.72;;;27.19;37.52
42691;BME280;28306;55.744;37.578;2022-07-25T05:36:36;99013.38;;;27.15;37.60
42691;BME280;28306;55.744;37.578;2022-07-25T05:39:02;99031.81;;;27.24;37.44
42691;BME280;28306;55.744;37.578;2022-07-25T05:41:28;99022.75;;;27.28;37.42
42691;BME280;28306;55.744;37.578;2022-07-25T05:43:53;99021.88;;;27.33;37.37
42691;BME280;28306;55.744;37.578;2022-07-25T05:46:19;99006.88;;;27.30;37.09
42691;BME280;28306;55.744;37.578;2022-07-25T05:48:45;99020.59;;;27.44;37.12
42691;BME280;28306;55.744;37.578;2022-07-25T05:51:10;99011.31;;;27.45;37.05
42691;BME280;28306;55.744;37.578;2022-07-25T05:53:36;99000.59;;;27.49;37.04
42691;BME280;28306;55.744;37.578;2022-07-25T05:56:03;99011.38;;;27.59;37.09
42691;BME280;28306;55.744;37.578;2022-07-25T05:58:28;99008.34;;;27.61;36.78
42691;BME280;28306;55.744;37.578;2022-07-25T06:00:54;99013.50;;;27.62;36.78
42691;BME280;28306;55.744;37.578;2022-07-25T06:03:20;99013.19;;;27.64;36.76
42691;BME280;28306;55.744;37.578;2022-07-25T06:05:46;99004.69;;;27.65;36.77
42691;BME280;28306;55.744;37.578;2022-07-25T06:08:13;99006.94;;;27.63;36.85
42691;BME280;28306;55.744;37.578;2022-07-25T06:10:39;99016.94;;;27.68;36.71
42691;BME280;28306;55.744;37.578;2022-07-25T06:13:05;98998.19;;;27.61;36.68
42691;BME280;28306;55.744;37.578;2022-07-25T06:15:31;99005.00;;;27.64;36.83
42691;BME280;28306;55.744;37.578;2022-07-25T06:17:56;99006.00;;;27.68;36.59
42691;BME280;28306;55.744;37.578;2022-07-25T06:20:22;99002.16;;;27.69;36.70
42691;BME280;28306;55.744;37.578;2022-07-25T06:22:48;99000.84;;;27.66;36.78
42691;BME280;28306;55.744;37.578;2022-07-25T06:25:14;99005.19;;;27.67;36.81
42691;BME280;28306;55.744;37.578;2022-07-25T06:27:40;98998.44;;;27.65;36.77
42691;BME280;28306;55.744;37.578;2022-07-25T06:30:07;99007.44;;;27.65;36.73
42691;BME280;28306;55.744;37.578;2022-07-25T06:32:32;98994.56;;;27.66;36.79
42691;BME280;28306;55.744;37.578;2022-07-25T06:34:58;98998.44;;;27.65;36.71
42691;BME280;28306;55.744;37.578;2022-07-25T06:37:24;99007.84;;;27.73;36.62
42691;BME280;28306;55.744;37.578;2022-07-25T06:39:50;99006.44;;;27.75;36.52
42691;BME280;28306;55.744;37.578;2022-07-25T06:42:16;99006.94;;;27.77;36.52
42691;BME280;28306;55.744;37.578;2022-07-25T06:44:41;99016.16;;;27.81;36.51
42691;BME280;28306;55.744;37.578;2022-07-25T06:47:07;99013.63;;;27.85;36.25
42691;BME280;28306;55.744;37.578;2022-07-25T06:49:40;99014.97;;;27.87;36.40
42691;BME280;28306;55.744;37.578;2022-07-25T06:52:07;99007.28;;;27.90;36.29
42691;BME280;28306;55.744;37.578;2022-07-25T06:54:33;98983.66;;;27.80;36.18
42691;BME280;28306;55.744;37.578;2022-07-25T06:56:58;99008.03;;;27.95;36.22
42691;BME280;28306;55.744;37.578;2022-07-25T06:59:24;99003.06;;;27.97;36.29
42691;BME280;28306;55.744;37.578;2022-07-25T07:01:50;99002.84;;;27.94;36.42
42691;BME280;28306;55.744;37.578;2022-07-25T07:04:16;98995.72;;;27.93;36.23
42691;BME280;28306;55.744;37.578;2022-07-25T07:06:41;98985.09;;;27.91;36.35
42691;BME280;28306;55.744;37.578;2022-07-25T07:09:08;99004.41;;;28.00;36.28
42691;BME280;28306;55.744;37.578;2022-07-25T07:11:34;98997.00;;;28.00;36.23
42691;BME280;28306;55.744;37.578;2022-07-25T07:14:01;99009.47;;;28.07;36.20
42691;BME280;28306;55.744;37.578;2022-07-25T07:16:28;99011.88;;;28.08;36.37
42691;BME280;28306;55.744;37.578;2022-07-25T07:18:54;99015.66;;;28.12;35.98
42691;BME280;28306;55.744;37.578;2022-07-25T07:21:20;99018.38;;;28.12;36.10
42691;BME280;28306;55.744;37.578;2022-07-25T07:23:46;99010.69;;;28.14;36.22
42691;BME280;28306;55.744;37.578;2022-07-25T07:26:12;99018.09;;;28.14;36.20
42691;BME280;28306;55.744;37.578;2022-07-25T07:28:38;99003.28;;;28.15;36.04
42691;BME280;28306;55.744;37.578;2022-07-25T07:31:04;99013.31;;;28.19;35.88
42691;BME280;28306;55.744;37.578;2022-07-25T07:33:30;99010.28;;;28.21;35.99
42691;BME280;28306;55.744;37.578;2022-07-25T07:35:58;99013.84;;;28.21;35.88
42691;BME280;28306;55.744;37.578;2022-07-25T07:38:24;99020.91;;;28.22;35.84
42691;BME280;28306;55.744;37.578;2022-07-25T07:40:50;99016.78;;;28.25;35.87
42691;BME280;28306;55.744;37.578;2022-07-25T07:43:16;99009.88;;;28.28;35.98
42691;BME280;28306;55.744;37.578;2022-07-25T07:45:42;99016.97;;;28.29;35.88
42691;BME280;28306;55.744;37.578;2022-07-25T07:48:08;99019.09;;;28.32;35.47
42691;BME280;28306;55.744;37.578;2022-07-25T07:50:34;99014.94;;;28.34;35.69
42691;BME280;28306;55.744;37.578;2022-07-25T07:53:00;99011.91;;;28.36;35.76
42691;BME280;28306;55.744;37.578;2022-07-25T07:55:26;98996.22;;;28.28;35.66
42691;BME280;28306;55.744;37.578;2022-07-25T07:58:17;99019.22;;;28.40;35.78
42691;BME280;28306;55.744;37.578;2022-07-25T08:00:45;99017.06;;;28.37;35.66
42691;BME280;28306;55.744;37.578;2022-07-25T08:03:11;99015.75;;;28.35;35.80
42691;BME280;28306;55.744;37.578;2022-07-25T08:05:40;99011.19;;;28.30;35.72
42691;BME280;28306;55.744;37.578;2022-07-25T08:08:07;98999.34;;;28.35;35.78
42691;BME280;28306;55.744;37.578;2022-07-25T08:10:35;99006.31;;;28.41;35.60
42691;BME280;28306;55.744;37.578;2022-07-25T08:13:10;99005.41;;;28.46;35.55
42691;BME280;28306;55.744;37.578;2022-07-25T08:15:38;98968.44;;;28.34;35.28
42691;BME280;28306;55.744;37.578;2022-07-25T08:18:03;99002.78;;;28.54;35.39
42691;BME280;28306;55.744;37.578;2022-07-25T08:20:29;98999.22;;;28.54;35.31
42691;BME280;28306;55.744;37.578;2022-07-25T08:22:55;98998.91;;;28.55;35.17
42691;BME280;28306;55.744;37.578;2022-07-25T08:25:21;99000.84;;;28.55;35.45
42691;BME280;28306;55.744;37.578;2022-07-25T08:27:47;99002.25;;;28.52;35.27
42691;BME280;28306;55.744;37.578;2022-07-25T08:30:14;99002.88;;;28.49;35.51
42691;BME280;28306;55.744;37.578;2022-07-25T08:32:55;99004.69;;;28.54;35.51
42691;BME280;28306;55.744;37.578;2022-07-25T08:35:22;99005.00;;;28.52;35.41
42691;BME280;28306;55.744;37.578;2022-07-25T08:37:49;98992.22;;;28.48;35.46
42691;BME280;28306;55.744;37.578;2022-07-25T08:40:17;98999.13;;;28.45;35.36
42691;BME280;28306;55.744;37.578;2022-07-25T08:42:43;98990.94;;;28.45;35.44
42691;BME280;28306;55.744;37.578;2022-07-25T08:45:10;99007.41;;;28.54;35.38
42691;BME280;28306;55.744;37.578;2022-07-25T08:47:41;99001.94;;;28.54;35.41
42691;BME280;28306;55.744;37.578;2022-07-25T08:50:13;99004.19;;;28.52;35.54
42691;BME280;28306;55.744;37.578;2022-07-25T08:52:40;99009.56;;;28.71;35.28
42691;BME280;28306;55.744;37.578;2022-07-25T08:55:09;99001.16;;;28.53;35.25
42691;BME280;28306;55.744;37.578;2022-07-25T08:57:36;99015.03;;;28.57;35.31
42691;BME280;28306;55.744;37.578;2022-07-25T09:00:06;99010.16;;;28.54;35.45
42691;BME280;28306;55.744;37.578;2022-07-25T09:02:32;98995.28;;;28.46;35.45
42691;BME280;28306;55.744;37.578;2022-07-25T09:04:58;99014.34;;;28.51;35.34
42691;BME280;28306;55.744;37.578;2022-07-25T09:09:56;99014.13;;;28.48;35.31
42691;BME280;28306;55.744;37.578;2022-07-25T09:12:26;99018.19;;;28.50;35.47
42691;BME280;28306;55.744;37.578;2022-07-25T09:14:53;99001.16;;;28.53;35.27
42691;BME280;28306;55.744;37.578;2022-07-25T09:17:18;98993.66;;;28.45;35.26
42691;BME280;28306;55.744;37.578;2022-07-25T09:19:52;99006.00;;;28.56;35.32
42691;BME280;28306;55.744;37.578;2022-07-25T09:22:18;99014.75;;;28.58;35.29
42691;BME280;28306;55.744;37.578;2022-07-25T09:24:44;99001.47;;;28.52;35.21
42691;BME280;28306;55.744;37.578;2022-07-25T09:27:10;99011.41;;;28.62;35.27
42691;BME280;28306;55.744;37.578;2022-07-25T09:29:38;99010.28;;;28.63;35.20
42691;BME280;28306;55.744;37.578;2022-07-25T09:32:19;99007.44;;;28.68;35.38
42691;BME280;28306;55.744;37.578;2022-07-25T09:34:47;98998.25;;;28.64;35.15
42691;BME280;28306;55.744;37.578;2022-07-25T09:37:16;99008.84;;;28.65;35.32
42691;BME280;28306;55.744;37.578;2022-07-25T09:39:47;99007.06;;;28.61;35.16
42691;BME280;28306;55.744;37.578;2022-07-25T09:45:00;99012.22;;;28.62;35.36
42691;BME280;28306;55.744;37.578;2022-07-25T09:47:28;99015.28;;;28.61;35.36
42691;BME280;28306;55.744;37.578;2022-07-25T09:49:55;99009.38;;;28.53;35.26
42691;BME280;28306;55.744;37.578;2022-07-25T09:52:20;99009.28;;;28.58;35.38
42691;BME280;28306;55.744;37.578;2022-07-25T09:54:47;99007.38;;;28.59;35.45
42691;BME280;28306;55.744;37.578;2022-07-25T09:57:12;99004.91;;;28.57;35.38
42691;BME280;28306;55.744;37.578;2022-07-25T09:59:38;99012.00;;;28.58;35.45
42691;BME280;28306;55.744;37.578;2022-07-25T10:02:08;98993.06;;;28.48;35.28
42691;BME280;28306;55.744;37.578;2022-07-25T10:04:52;98998.31;;;28.58;35.35
42691;BME280;28306;55.744;37.578;2022-07-25T10:07:21;99004.91;;;28.57;35.27
42691;BME280;28306;55.744;37.578;2022-07-25T10:09:50;99005.22;;;28.56;35.49
42691;BME280;28306;55.744;37.578;2022-07-25T10:12:21;98995.69;;;28.53;35.37
42691;BME280;28306;55.744;37.578;2022-07-25T10:15:09;99002.38;;;28.61;35.37
42691;BME280;28306;55.744;37.578;2022-07-25T10:17:37;98992.84;;;28.58;35.31
42691;BME280;28306;55.744;37.578;2022-07-25T10:20:05;98991.84;;;28.54;35.34
42691;BME280;28306;55.744;37.578;2022-07-25T10:22:42;98987.16;;;28.55;35.31
42691;BME280;28306;55.744;37.578;2022-07-25T10:25:15;98998.31;;;28.58;35.66
42691;BME280;28306;55.744;37.578;2022-07-25T10:27:43;98997.00;;;28.56;35.40
42691;BME280;28306;55.744;37.578;2022-07-25T10:30:20;98984.72;;;28.53;35.39
42691;BME280;28306;55.744;37.578;2022-07-25T10:33:02;98989.00;;;28.60;35.39
42691;BME280;28306;55.744;37.578;2022-07-25T10:35:29;98986.84;;;28.56;35.45
42691;BME280;28306;55.744;37.578;2022-07-25T10:37:56;98986.06;;;28.56;35.62
42691;BME280;28306;55.744;37.578;2022-07-25T10:40:44;98990.41;;;28.57;35.47
42691;BME280;28306;55.744;37.578;2022-07-25T10:43:20;98987.97;;;28.55;35.54
42691;BME280;28306;55.744;37.578;2022-07-25T10:45:54;98982.75;;;28.59;35.38
42691;BME280;28306;55.744;37.578;2022-07-25T10:48:21;98987.91;;;28.61;35.49
42691;BME280;28306;55.744;37.578;2022-07-25T10:53:14;98985.16;;;28.61;35.54
42691;BME280;28306;55.744;37.578;2022-07-25T10:55:40;98985.66;;;28.63;35.34
42691;BME280;28306;55.744;37.578;2022-07-25T10:58:06;98982.31;;;28.66;35.43
42691;BME280;28306;55.744;37.578;2022-07-25T11:00:32;98971.47;;;28.61;35.41
42691;BME280;28306;55.744;37.578;2022-07-25T11:02:59;98974.59;;;28.68;35.33
42691;BME280;28306;55.744;37.578;2022-07-25T11:05:25;98979.75;;;28.69;35.40
42691;BME280;28306;55.744;37.578;2022-07-25T11:07:52;98977.03;;;28.69;35.37
42691;BME280;28306;55.744;37.578;2022-07-25T11:10:26;98981.69;;;28.69;35.19
42691;BME280;28306;55.744;37.578;2022-07-25T11:12:53;98975.09;;;28.70;35.27
42691;BME280;28306;55.744;37.578;2022-07-25T11:15:22;98972.16;;;28.66;35.41
42691;BME280;28306;55.744;37.578;2022-07-25T11:17:50;98979.94;;;28.73;35.24
42691;BME280;28306;55.744;37.578;2022-07-25T11:20:16;98967.91;;;28.74;35.31
42691;BME280;28306;55.744;37.578;2022-07-25T11:22:50;98966.25;;;28.73;35.26
42691;BME280;28306;55.744;37.578;2022-07-25T11:25:19;98965.94;;;28.74;35.23
42691;BME280;28306;55.744;37.578;2022-07-25T11:27:49;98970.00;;;28.77;35.25
42691;BME280;28306;55.744;37.578;2022-07-25T11:30:17;98973.75;;;28.81;35.06
42691;BME280;28306;55.744;37.578;2022-07-25T11:32:46;98968.47;;;28.85;35.20
42691;BME280;28306;55.744;37.578;2022-07-25T11:35:14;98961.38;;;28.84;35.03
42691;BME280;28306;55.744;37.578;2022-07-25T11:37:43;98964.94;;;28.84;35.32
42691;BME280;28306;55.744;37.578;2022-07-25T11:40:09;98945.88;;;28.79;34.96
42691;BME280;28306;55.744;37.578;2022-07-25T11:42:45;98945.66;;;28.89;34.79
42691;BME280;28306;55.744;37.578;2022-07-25T11:48:02;98956.28;;;28.91;34.97
42691;BME280;28306;55.744;37.578;2022-07-25T11:50:30;98949.41;;;28.93;34.95
42691;BME280;28306;55.744;37.578;2022-07-25T11:53:00;98953.59;;;29.00;35.01
42691;BME280;28306;55.744;37.578;2022-07-25T11:55:28;98952.19;;;29.02;34.80
42691;BME280;28306;55.744;37.578;2022-07-25T11:57:58;98951.81;;;29.40;34.26
42691;BME280;28306;55.744;37.578;2022-07-25T12:00:24;98941.69;;;30.04;33.08
42691;BME280;28306;55.744;37.578;2022-07-25T12:02:50;98944.66;;;31.08;31.73
42691;BME280;28306;55.744;37.578;2022-07-25T12:05:19;98943.47;;;31.92;30.41
42691;BME280;28306;55.744;37.578;2022-07-25T12:07:50;98943.63;;;32.64;29.32
42691;BME280;28306;55.744;37.578;2022-07-25T12:10:22;98938.47;;;33.17;28.64
42691;BME280;28306;55.744;37.578;2022-07-25T12:12:50;98946.97;;;33.45;28.02
42691;BME280;28306;55.744;37.578;2022-07-25T12:15:22;98934.31;;;33.11;28.38
42691;BME280;28306;55.744;37.578;2022-07-25T12:17:50;98941.41;;;32.78;28.94
42691;BME280;28306;55.744;37.578;2022-07-25T12:20:22;98939.41;;;32.58;29.17
42691;BME280;28306;55.744;37.578;2022-07-25T12:22:50;98941.38;;;32.57;29.29
42691;BME280;28306;55.744;37.578;2022-07-25T12:25:16;98930.63;;;32.64;29.07
42691;BME280;28306;55.744;37.578;2022-07-25T12:27:42;98931.31;;;32.82;28.83
42691;BME280;28306;55.744;37.578;2022-07-25T12:30:09;98925.91;;;33.07;28.46
42691;BME280;28306;55.744;37.578;2022-07-25T12:32:35;98931.06;;;33.30;28.18
42691;BME280;28306;55.744;37.578;2022-07-25T12:35:03;98926.06;;;33.44;27.79
42691;BME280;28306;55.744;37.578;2022-07-25T12:37:28;98907.13;;;33.67;27.48
42691;BME280;28306;55.744;37.578;2022-07-25T12:39:54;98912.13;;;33.86;27.45
42691;BME280;28306;55.744;37.578;2022-07-25T12:42:20;98918.91;;;33.89;27.44
42691;BME280;28306;55.744;37.578;2022-07-25T12:44:45;98913.50;;;33.80;27.53
42691;BME280;28306;55.744;37.578;2022-07-25T12:47:11;98906.53;;;33.62;27.63
42691;BME280;28306;55.744;37.578;2022-07-25T12:49:37;98914.00;;;33.49;27.83
42691;BME280;28306;55.744;37.578;2022-07-25T12:52:03;98916.84;;;33.40;27.90
42691;BME280;28306;55.744;37.578;2022-07-25T12:54:29;98916.00;;;33.27;28.18
42691;BME280;28306;55.744;37.578;2022-07-25T12:56:54;98908.69;;;33.10;28.50
42691;BME280;28306;55.744;37.578;2022-07-25T12:59:20;98906.75;;;33.11;28.54
42691;BME280;28306;55.744;37.578;2022-07-25T13:01:46;98917.13;;;33.59;28.02